createdAt,value
2022-08-16T00:00:03.740Z,81.16
2022-08-16T00:00:57.816Z,80.96
2022-08-16T00:01:56.868Z,80.76
2022-08-16T00:02:56.801Z,81.26
2022-08-16T00:03:56.787Z,81.20
2022-08-16T00:05:00.030Z,80.66
2022-08-16T00:05:57.449Z,81.00
2022-08-16T00:06:56.757Z,81.16
2022-08-16T00:07:57.132Z,81.16
2022-08-16T00:08:56.732Z,81.06
2022-08-16T00:09:56.734Z,80.96
2022-08-16T00:10:56.708Z,80.66
2022-08-16T00:11:56.698Z,80.56
2022-08-16T00:12:56.691Z,80.46
2022-08-16T00:13:56.674Z,80.76
2022-08-16T00:14:57.243Z,80.56
2022-08-16T00:15:56.660Z,80.56
2022-08-16T00:17:01.177Z,80.50
2022-08-16T00:17:57.626Z,81.00
2022-08-16T00:18:56.618Z,81.20
2022-08-16T00:19:56.618Z,81.30
2022-08-16T00:20:56.596Z,81.80
2022-08-16T00:22:01.672Z,81.50
2022-08-16T00:22:57.575Z,81.90
2022-08-16T00:23:56.560Z,81.90
2022-08-16T00:24:56.558Z,81.60
2022-08-16T00:26:35.262Z,81.80
2022-08-16T00:26:57.519Z,81.70
2022-08-16T00:27:56.515Z,81.84
2022-08-16T00:28:56.505Z,81.90
2022-08-16T00:30:09.026Z,81.80
2022-08-16T00:30:59.240Z,81.80
2022-08-16T00:31:59.769Z,81.80
2022-08-16T00:32:57.451Z,81.60
2022-08-16T00:33:56.440Z,81.74
2022-08-16T00:34:56.450Z,81.90
2022-08-16T00:35:56.421Z,82.10
2022-08-16T00:36:56.410Z,81.80
2022-08-16T00:37:59.361Z,82.00
2022-08-16T00:38:56.439Z,82.20
2022-08-16T00:39:57.327Z,81.84
2022-08-16T00:40:56.401Z,81.84
2022-08-16T00:41:56.356Z,81.94
2022-08-16T00:42:56.346Z,82.45
2022-08-16T00:43:56.327Z,81.94
2022-08-16T00:44:56.337Z,82.00
2022-08-16T00:46:00.371Z,81.94
2022-08-16T00:47:06.353Z,82.14
2022-08-16T00:47:58.033Z,81.94
2022-08-16T00:48:56.273Z,81.94
2022-08-16T00:49:56.887Z,82.04
2022-08-16T00:50:56.256Z,81.90
2022-08-16T00:51:56.246Z,82.04
2022-08-16T00:52:56.394Z,81.94
2022-08-16T00:53:56.221Z,81.74
2022-08-16T00:54:56.225Z,82.04
2022-08-16T00:55:56.207Z,82.04
2022-08-16T00:57:00.071Z,82.04
2022-08-16T00:57:58.593Z,81.94
2022-08-16T00:58:56.159Z,81.94
2022-08-16T00:59:59.547Z,81.94
2022-08-16T01:00:56.165Z,82.34
2022-08-16T01:01:56.131Z,82.04
2022-08-16T01:02:56.123Z,82.24
2022-08-16T01:03:56.112Z,82.04
2022-08-16T01:05:09.159Z,81.94
2022-08-16T01:05:57.085Z,81.94
2022-08-16T01:07:01.877Z,82.14
2022-08-16T01:07:57.063Z,81.94
2022-08-16T01:08:56.052Z,81.84
2022-08-16T01:09:56.055Z,82.28
2022-08-16T01:10:56.025Z,81.94
2022-08-16T01:11:56.012Z,81.94
2022-08-16T01:12:56.009Z,81.94
2022-08-16T01:13:55.998Z,81.84
2022-08-16T01:14:55.994Z,82.24
2022-08-16T01:15:55.973Z,82.14
2022-08-16T01:16:55.963Z,82.48
2022-08-16T01:17:56.364Z,81.84
2022-08-16T01:18:55.933Z,81.94
2022-08-16T01:19:57.189Z,82.04
2022-08-16T01:20:55.912Z,81.64
2022-08-16T01:21:55.905Z,82.04
2022-08-16T01:22:56.889Z,82.04
2022-08-16T01:23:58.673Z,81.84
2022-08-16T01:24:56.888Z,81.88
2022-08-16T01:25:59.757Z,81.68
2022-08-16T01:26:55.841Z,81.64
2022-08-16T01:27:56.836Z,81.84
2022-08-16T01:28:55.826Z,81.84
2022-08-16T01:29:57.891Z,82.24
2022-08-16T01:30:55.805Z,81.94
2022-08-16T01:31:55.795Z,81.84
2022-08-16T01:33:02.793Z,82.04
2022-08-16T01:33:56.768Z,81.88
2022-08-16T01:34:57.028Z,81.84
2022-08-16T01:35:56.136Z,81.94
2022-08-16T01:41:34.975Z,82.04
2022-08-16T01:42:35.958Z,82.04
2022-08-16T01:43:34.953Z,81.84
2022-08-16T01:44:37.754Z,81.64
2022-08-16T01:45:39.752Z,81.74
2022-08-16T01:46:40.221Z,81.54
2022-08-16T01:47:35.894Z,81.64
2022-08-16T01:48:35.400Z,81.84
2022-08-16T01:49:45.392Z,81.88
2022-08-16T01:50:42.084Z,82.08
2022-08-16T01:51:35.851Z,82.34
2022-08-16T01:52:34.841Z,82.18
2022-08-16T01:53:34.843Z,82.38
2022-08-16T01:54:34.815Z,82.08
2022-08-16T01:55:35.815Z,82.08
2022-08-16T01:56:34.842Z,82.38
2022-08-16T01:57:35.566Z,82.08
2022-08-16T01:58:34.777Z,81.64
2022-08-16T01:59:34.779Z,82.18
2022-08-16T02:00:34.762Z,81.88
2022-08-16T02:01:34.890Z,81.68
2022-08-16T02:02:34.733Z,81.88
2022-08-16T02:03:35.738Z,82.18
2022-08-16T02:04:48.594Z,82.08
2022-08-16T02:05:35.692Z,82.08
2022-08-16T02:06:35.629Z,82.08
2022-08-16T02:07:34.677Z,82.48
2022-08-16T02:08:34.665Z,81.98
2022-08-16T02:09:34.669Z,81.98
2022-08-16T02:10:34.636Z,81.98
2022-08-16T02:11:48.881Z,81.98
2022-08-16T02:12:49.350Z,81.78
2022-08-16T02:13:35.603Z,82.38
2022-08-16T02:14:35.611Z,81.88
2022-08-16T02:15:40.403Z,81.78
2022-08-16T02:16:35.575Z,82.68
2022-08-16T02:17:34.566Z,82.24
2022-08-16T02:18:34.545Z,82.08
2022-08-16T02:19:59.813Z,82.38
2022-08-16T02:20:35.532Z,82.08
2022-08-16T02:21:34.524Z,82.08
2022-08-16T02:22:36.913Z,81.98
2022-08-16T02:23:34.503Z,82.08
2022-08-16T02:24:42.028Z,82.38
2022-08-16T02:25:52.594Z,81.98
2022-08-16T02:26:35.461Z,82.48
2022-08-16T02:27:34.447Z,81.88
2022-08-16T02:28:34.441Z,82.48
2022-08-16T02:29:34.439Z,82.18
2022-08-16T02:30:35.873Z,82.18
2022-08-16T02:32:03.187Z,82.08
2022-08-16T02:32:49.319Z,82.08
2022-08-16T02:33:44.093Z,81.88
2022-08-16T02:34:40.727Z,82.38
2022-08-16T02:35:49.648Z,82.48
2022-08-16T02:36:42.469Z,81.98
2022-08-16T02:37:51.432Z,82.38
2022-08-16T02:38:35.329Z,81.88
2022-08-16T02:39:34.382Z,82.18
2022-08-16T02:40:34.321Z,82.08
2022-08-16T02:41:34.299Z,82.08
2022-08-16T02:42:35.277Z,82.18
2022-08-16T02:43:34.267Z,81.98
2022-08-16T02:44:34.254Z,82.18
2022-08-16T02:45:34.258Z,82.12
2022-08-16T02:46:34.238Z,81.88
2022-08-16T02:47:34.228Z,82.18
2022-08-16T02:48:35.208Z,81.98
2022-08-16T02:49:59.121Z,81.88
2022-08-16T02:50:54.190Z,82.12
2022-08-16T02:51:35.753Z,82.12
2022-08-16T02:52:34.166Z,82.18
2022-08-16T02:53:34.162Z,82.22
2022-08-16T02:54:34.142Z,82.22
2022-08-16T02:55:40.639Z,81.98
2022-08-16T02:56:35.118Z,82.12
2022-08-16T02:57:34.110Z,82.02
2022-08-16T02:58:34.105Z,81.98
2022-08-16T02:59:39.757Z,82.22
2022-08-16T03:00:35.293Z,82.22
2022-08-16T03:01:37.323Z,82.22
2022-08-16T03:02:34.055Z,82.02
2022-08-16T03:04:29.848Z,82.38
2022-08-16T03:04:50.166Z,82.42
2022-08-16T03:05:35.036Z,82.02
2022-08-16T03:06:42.444Z,82.02
2022-08-16T03:07:37.319Z,82.42
2022-08-16T03:08:51.994Z,82.02
2022-08-16T03:09:34.982Z,82.32
2022-08-16T03:10:34.229Z,82.02
2022-08-16T03:11:35.568Z,82.02
2022-08-16T03:12:37.736Z,82.52
2022-08-16T03:13:40.043Z,82.22
2022-08-16T03:14:34.919Z,82.32
2022-08-16T03:15:33.924Z,82.32
2022-08-16T03:16:38.952Z,82.42
2022-08-16T03:17:34.883Z,82.32
2022-08-16T03:18:34.469Z,82.32
2022-08-16T03:19:47.984Z,82.46
2022-08-16T03:20:34.860Z,82.42
2022-08-16T03:21:33.848Z,82.32
2022-08-16T03:22:33.853Z,82.52
2022-08-16T03:23:35.697Z,82.52
2022-08-16T03:24:33.805Z,82.42
2022-08-16T03:25:41.173Z,82.32
2022-08-16T03:26:34.789Z,82.22
2022-08-16T03:27:33.781Z,82.42
2022-08-16T03:28:33.760Z,82.32
2022-08-16T03:29:33.761Z,82.22
2022-08-16T03:30:33.761Z,82.42
2022-08-16T03:31:34.745Z,82.02
2022-08-16T03:32:34.722Z,82.42
2022-08-16T03:33:33.712Z,82.52
2022-08-16T03:34:33.696Z,82.52
2022-08-16T03:35:33.798Z,82.46
2022-08-16T03:36:33.685Z,82.82
2022-08-16T03:38:03.259Z,83.47
2022-08-16T03:38:35.330Z,82.46
2022-08-16T03:39:33.676Z,83.57
2022-08-16T03:40:34.793Z,83.57
2022-08-16T03:41:50.305Z,83.26
2022-08-16T03:42:34.603Z,82.97
2022-08-16T03:43:51.437Z,83.26
2022-08-16T03:44:44.783Z,83.17
2022-08-16T03:45:34.569Z,83.26
2022-08-16T03:46:48.117Z,83.17
2022-08-16T03:47:34.546Z,83.06
2022-08-16T03:48:39.571Z,83.06
2022-08-16T03:49:37.104Z,83.06
2022-08-16T03:50:33.518Z,83.17
2022-08-16T03:51:33.509Z,83.67
2022-08-16T03:52:33.515Z,83.97
2022-08-16T03:53:38.003Z,83.67
2022-08-16T03:54:35.744Z,83.47
2022-08-16T03:55:45.314Z,83.67
2022-08-16T03:56:34.452Z,83.76
2022-08-16T03:57:36.653Z,83.67
2022-08-16T03:58:33.427Z,83.67
2022-08-16T03:59:33.419Z,83.57
2022-08-16T04:00:36.092Z,83.76
2022-08-16T04:01:34.468Z,83.47
2022-08-16T04:02:33.396Z,83.61
2022-08-16T04:03:33.375Z,83.40
2022-08-16T04:04:33.990Z,84.51
2022-08-16T04:05:33.351Z,83.71
2022-08-16T04:06:33.342Z,83.81
2022-08-16T04:07:33.789Z,84.21
2022-08-16T04:08:34.645Z,84.41
2022-08-16T04:09:35.198Z,84.21
2022-08-16T04:10:36.578Z,84.11
2022-08-16T04:11:36.744Z,84.31
2022-08-16T04:12:53.904Z,84.21
2022-08-16T04:14:00.813Z,84.01
2022-08-16T04:14:34.329Z,84.21
2022-08-16T04:15:33.233Z,84.21
2022-08-16T04:16:33.716Z,84.21
2022-08-16T04:17:33.223Z,84.51
2022-08-16T04:18:33.205Z,84.51
2022-08-16T04:19:33.196Z,84.01
2022-08-16T04:20:36.726Z,84.11
2022-08-16T04:21:33.172Z,84.61
2022-08-16T04:22:33.169Z,84.31
2022-08-16T04:23:33.182Z,84.31
2022-08-16T04:24:33.138Z,84.31
2022-08-16T04:25:33.127Z,84.41
2022-08-16T04:26:33.117Z,84.51
2022-08-16T04:27:33.118Z,84.51
2022-08-16T04:28:53.541Z,84.51
2022-08-16T04:29:46.023Z,84.31
2022-08-16T04:30:34.999Z,84.51
2022-08-16T04:31:33.059Z,84.41
2022-08-16T04:32:33.062Z,84.95
2022-08-16T04:33:35.026Z,85.02
2022-08-16T04:34:33.025Z,85.22
2022-08-16T04:35:34.330Z,85.42
2022-08-16T04:36:33.009Z,84.91
2022-08-16T04:37:33.008Z,85.31
2022-08-16T04:38:33.981Z,85.22
2022-08-16T04:39:44.990Z,84.91
2022-08-16T04:40:34.009Z,84.61
2022-08-16T04:41:37.422Z,85.31
2022-08-16T04:42:35.723Z,85.22
2022-08-16T04:43:32.921Z,85.52
2022-08-16T04:44:53.634Z,85.11
2022-08-16T04:45:35.967Z,85.16
2022-08-16T04:47:02.379Z,85.31
2022-08-16T04:47:35.921Z,85.31
2022-08-16T04:48:34.381Z,85.52
2022-08-16T04:49:38.666Z,85.31
2022-08-16T04:50:33.846Z,84.61
2022-08-16T04:51:35.972Z,85.02
2022-08-16T04:52:35.781Z,84.91
2022-08-16T04:53:32.812Z,85.31
2022-08-16T04:54:32.801Z,85.22
2022-08-16T04:55:38.283Z,85.05
2022-08-16T04:56:33.772Z,85.16
2022-08-16T04:57:32.780Z,85.22
2022-08-16T04:58:44.723Z,85.11
2022-08-16T04:59:33.740Z,85.22
2022-08-16T05:00:33.580Z,85.22
2022-08-16T05:01:57.927Z,85.31
2022-08-16T05:02:42.135Z,85.22
2022-08-16T05:03:33.748Z,85.22
2022-08-16T05:04:32.689Z,85.02
2022-08-16T05:05:36.695Z,85.31
2022-08-16T05:06:44.645Z,85.22
2022-08-16T05:07:33.661Z,85.62
2022-08-16T05:08:32.641Z,85.22
2022-08-16T05:09:36.310Z,85.31
2022-08-16T05:10:32.621Z,85.62
2022-08-16T05:11:32.602Z,85.28
2022-08-16T05:12:32.606Z,85.31
2022-08-16T05:13:40.486Z,85.42
2022-08-16T05:14:45.618Z,84.88
2022-08-16T05:15:33.557Z,85.17
2022-08-16T05:16:32.554Z,84.88
2022-08-16T05:17:32.690Z,84.88
2022-08-16T05:18:32.533Z,84.47
2022-08-16T05:19:36.011Z,84.47
2022-08-16T05:20:38.531Z,84.37
2022-08-16T05:21:37.981Z,84.03
2022-08-16T05:22:33.506Z,84.43
2022-08-16T05:23:32.473Z,84.33
2022-08-16T05:24:32.458Z,84.13
2022-08-16T05:25:41.094Z,84.03
2022-08-16T05:26:33.435Z,83.73
2022-08-16T05:27:32.439Z,83.59
2022-08-16T05:28:37.612Z,83.59
2022-08-16T05:29:57.580Z,83.49
2022-08-16T05:30:35.243Z,83.18
2022-08-16T05:31:32.410Z,82.58
2022-08-16T05:32:36.412Z,82.45
2022-08-16T05:33:33.368Z,81.94
2022-08-16T05:34:32.353Z,81.84
2022-08-16T05:35:32.583Z,81.84
2022-08-16T05:36:34.255Z,82.10
2022-08-16T05:37:39.955Z,81.90
2022-08-16T05:38:39.396Z,81.40
2022-08-16T05:39:33.610Z,81.16
2022-08-16T05:40:33.277Z,80.66
2022-08-16T05:41:32.282Z,80.86
2022-08-16T05:42:35.818Z,81.12
2022-08-16T05:43:43.765Z,80.36
2022-08-16T05:44:33.241Z,80.12
2022-08-16T05:45:32.227Z,79.92
2022-08-16T05:46:32.212Z,80.08
2022-08-16T05:47:32.220Z,80.42
2022-08-16T05:48:32.195Z,79.78
2022-08-16T05:49:38.468Z,79.68
2022-08-16T05:50:34.203Z,78.58
2022-08-16T05:51:37.638Z,78.78
2022-08-16T05:52:33.166Z,79.38
2022-08-16T05:53:32.134Z,78.78
2022-08-16T05:54:33.122Z,78.58
2022-08-16T05:55:32.109Z,78.38
2022-08-16T05:56:34.250Z,78.24
2022-08-16T05:57:34.473Z,78.14
2022-08-16T05:58:33.030Z,78.44
2022-08-16T05:59:32.073Z,78.20
2022-08-16T06:00:32.058Z,77.40
2022-08-16T06:01:32.833Z,77.80
2022-08-16T06:02:33.530Z,77.50
2022-08-16T06:03:32.026Z,77.20
2022-08-16T06:04:34.856Z,76.90
2022-08-16T06:05:36.223Z,77.36
2022-08-16T06:06:32.984Z,76.90
2022-08-16T06:07:32.322Z,76.37
2022-08-16T06:08:44.825Z,77.06
2022-08-16T06:09:43.230Z,76.26
2022-08-16T06:10:33.523Z,76.67
2022-08-16T06:11:31.938Z,76.33
2022-08-16T06:12:31.933Z,76.23
2022-08-16T06:13:32.626Z,76.23
2022-08-16T06:14:31.896Z,76.03
2022-08-16T06:15:31.889Z,76.09
2022-08-16T06:16:31.882Z,75.99
2022-08-16T06:17:41.093Z,75.39
2022-08-16T06:18:32.854Z,75.65
2022-08-16T06:19:33.940Z,75.05
2022-08-16T06:20:36.029Z,75.56
2022-08-16T06:21:36.728Z,74.55
2022-08-16T06:22:38.923Z,74.66
2022-08-16T06:23:32.793Z,73.72
2022-08-16T06:24:53.283Z,73.96
2022-08-16T06:25:36.787Z,74.76
2022-08-16T06:26:36.746Z,74.66
2022-08-16T06:27:39.615Z,74.66
2022-08-16T06:28:36.376Z,74.12
2022-08-16T06:29:31.733Z,73.82
2022-08-16T06:30:31.714Z,73.82
2022-08-16T06:31:31.717Z,73.82
2022-08-16T06:32:46.317Z,74.32
2022-08-16T06:33:40.279Z,73.92
2022-08-16T06:34:56.022Z,74.66
2022-08-16T06:35:40.468Z,74.26
2022-08-16T06:36:32.653Z,73.82
2022-08-16T06:37:37.343Z,74.66
2022-08-16T06:38:34.490Z,74.12
2022-08-16T06:39:31.660Z,74.12
2022-08-16T06:40:33.324Z,74.52
2022-08-16T06:41:39.752Z,74.72
2022-08-16T06:42:39.366Z,74.22
2022-08-16T06:43:32.578Z,73.42
2022-08-16T06:44:31.572Z,73.75
2022-08-16T06:45:31.593Z,74.36
2022-08-16T06:46:32.491Z,74.02
2022-08-16T06:47:52.509Z,73.86
2022-08-16T06:48:33.683Z,73.92
2022-08-16T06:49:31.517Z,74.02
2022-08-16T06:50:31.669Z,73.96
2022-08-16T06:51:46.521Z,73.86
2022-08-16T06:53:00.449Z,74.16
2022-08-16T06:53:32.474Z,74.85
2022-08-16T06:54:31.456Z,74.05
2022-08-16T06:55:34.354Z,74.36
2022-08-16T06:56:31.437Z,74.05
2022-08-16T06:57:31.433Z,74.46
2022-08-16T06:58:32.529Z,74.02
2022-08-16T06:59:31.399Z,74.12
2022-08-16T07:00:32.390Z,73.92
2022-08-16T07:01:45.165Z,73.72
2022-08-16T07:02:33.932Z,74.12
2022-08-16T07:03:32.481Z,73.62
2022-08-16T07:04:37.126Z,74.22
2022-08-16T07:05:41.733Z,73.82
2022-08-16T07:06:32.324Z,74.16
2022-08-16T07:07:34.470Z,74.72
2022-08-16T07:08:31.303Z,74.19
2022-08-16T07:09:31.291Z,74.38
2022-08-16T07:10:31.282Z,73.69
2022-08-16T07:11:48.222Z,73.79
2022-08-16T07:12:36.888Z,72.78
2022-08-16T07:13:58.521Z,73.58
2022-08-16T07:14:32.230Z,73.28
2022-08-16T07:15:31.219Z,74.29
2022-08-16T07:16:31.258Z,73.69
2022-08-16T07:17:31.216Z,73.99
2022-08-16T07:18:31.186Z,73.99
2022-08-16T07:20:01.616Z,73.69
2022-08-16T07:20:37.582Z,73.39
2022-08-16T07:21:45.793Z,73.28
2022-08-16T07:22:37.314Z,73.69
2022-08-16T07:23:36.961Z,73.39
2022-08-16T07:24:32.121Z,73.09
2022-08-16T07:25:31.115Z,72.78
2022-08-16T07:26:31.099Z,73.05
2022-08-16T07:27:33.597Z,72.49
2022-08-16T07:28:31.076Z,72.35
2022-08-16T07:29:31.652Z,72.55
2022-08-16T07:30:39.945Z,72.85
2022-08-16T07:31:37.859Z,72.65
2022-08-16T07:32:32.052Z,72.95
2022-08-16T07:33:52.524Z,72.32
2022-08-16T07:34:35.039Z,72.16
2022-08-16T07:35:31.001Z,72.35
2022-08-16T07:36:30.993Z,71.82
2022-08-16T07:37:30.996Z,71.82
2022-08-16T07:38:33.681Z,71.95
2022-08-16T07:39:33.648Z,72.02
2022-08-16T07:40:56.369Z,72.12
2022-08-16T07:41:31.938Z,71.92
2022-08-16T07:42:35.371Z,71.52
2022-08-16T07:43:30.918Z,71.52
2022-08-16T07:44:49.329Z,71.72
2022-08-16T07:45:33.545Z,71.92
2022-08-16T07:46:38.725Z,71.62
2022-08-16T07:47:32.205Z,71.52
2022-08-16T07:48:30.856Z,72.12
2022-08-16T07:49:32.296Z,72.42
2022-08-16T07:50:56.351Z,71.89
2022-08-16T07:51:31.829Z,72.49
2022-08-16T07:52:30.809Z,72.25
2022-08-16T07:53:30.820Z,71.25
2022-08-16T07:54:37.995Z,71.42
2022-08-16T07:55:45.476Z,70.36
2022-08-16T07:56:34.128Z,70.82
2022-08-16T07:57:35.055Z,71.32
2022-08-16T07:58:35.157Z,70.72
2022-08-16T07:59:46.221Z,70.12
2022-08-16T08:00:31.724Z,70.42
2022-08-16T08:01:30.712Z,69.62
2022-08-16T08:02:30.782Z,68.70
2022-08-16T08:03:36.139Z,69.09
2022-08-16T08:04:32.488Z,68.90
2022-08-16T08:05:35.824Z,69.59
2022-08-16T08:06:31.661Z,68.70
2022-08-16T08:07:32.619Z,68.50
2022-08-16T08:08:51.018Z,68.86
2022-08-16T08:09:31.622Z,68.37
2022-08-16T08:10:30.626Z,68.37
2022-08-16T08:11:30.614Z,68.23
2022-08-16T08:12:32.241Z,68.04
2022-08-16T08:13:42.639Z,67.33
2022-08-16T08:14:31.566Z,67.11
2022-08-16T08:15:34.268Z,65.81
2022-08-16T08:16:31.142Z,66.01
2022-08-16T08:17:42.726Z,65.58
2022-08-16T08:18:31.540Z,65.98
2022-08-16T08:19:30.561Z,65.98
2022-08-16T08:20:30.532Z,64.98
2022-08-16T08:21:58.858Z,64.49
2022-08-16T08:22:31.476Z,64.66
2022-08-16T08:23:30.524Z,64.79
2022-08-16T08:24:31.979Z,64.76
2022-08-16T08:25:53.745Z,65.16
2022-08-16T08:26:31.438Z,65.25
2022-08-16T08:27:32.746Z,64.56
2022-08-16T08:28:30.431Z,64.86
2022-08-16T08:29:37.517Z,64.66
2022-08-16T08:30:51.443Z,64.79
2022-08-16T08:31:31.384Z,64.36
2022-08-16T08:32:57.478Z,64.98
2022-08-16T08:33:31.430Z,64.98
2022-08-16T08:34:31.369Z,64.29
2022-08-16T08:35:30.332Z,65.19
2022-08-16T08:36:33.197Z,65.28
2022-08-16T08:37:54.338Z,65.16
2022-08-16T08:38:43.758Z,65.25
2022-08-16T08:39:31.337Z,64.73
2022-08-16T08:40:30.355Z,64.03
2022-08-16T08:41:30.503Z,63.80
2022-08-16T08:42:30.249Z,64.07
2022-08-16T08:43:30.255Z,63.77
2022-08-16T08:44:31.581Z,63.28
2022-08-16T08:45:48.805Z,62.48
2022-08-16T08:46:35.783Z,63.10
2022-08-16T08:47:31.202Z,62.81
2022-08-16T08:48:35.131Z,63.21
2022-08-16T08:49:46.528Z,63.01
2022-08-16T08:50:31.788Z,62.71
2022-08-16T08:51:31.746Z,63.10
2022-08-16T08:52:35.088Z,63.40
2022-08-16T08:53:31.158Z,63.10
2022-08-16T08:54:30.125Z,63.40
2022-08-16T08:55:30.832Z,63.21
2022-08-16T08:56:30.118Z,63.08
2022-08-16T08:57:30.110Z,63.08
2022-08-16T08:58:34.254Z,62.75
2022-08-16T08:59:30.065Z,62.23
2022-08-16T09:00:30.357Z,62.02
2022-08-16T09:01:31.772Z,60.91
2022-08-16T09:02:31.038Z,60.61
2022-08-16T09:03:30.080Z,60.28
2022-08-16T09:04:30.107Z,60.38
2022-08-16T09:05:35.938Z,59.89
2022-08-16T09:06:30.997Z,59.46
2022-08-16T09:07:29.985Z,60.06
2022-08-16T09:08:29.973Z,59.79
2022-08-16T09:09:33.132Z,58.87
2022-08-16T09:10:30.040Z,58.97
2022-08-16T09:11:40.819Z,59.49
2022-08-16T09:12:35.680Z,59.79
2022-08-16T09:13:32.935Z,60.25
2022-08-16T09:14:29.918Z,59.93
2022-08-16T09:15:33.100Z,57.82
2022-08-16T09:17:03.722Z,58.00
2022-08-16T09:17:49.109Z,56.98
2022-08-16T09:18:35.785Z,56.43
2022-08-16T09:19:32.193Z,56.10
2022-08-16T09:20:29.833Z,55.58
2022-08-16T09:21:31.235Z,54.68
2022-08-16T09:22:29.812Z,53.76
2022-08-16T09:23:29.815Z,53.93
2022-08-16T09:24:51.852Z,53.19
2022-08-16T09:25:34.064Z,52.99
2022-08-16T09:26:45.464Z,51.59
2022-08-16T09:27:57.017Z,50.81
2022-08-16T09:29:13.576Z,50.90
2022-08-16T09:29:45.382Z,51.81
2022-08-16T09:30:33.725Z,51.54
2022-08-16T09:31:29.795Z,52.53
2022-08-16T09:32:30.640Z,52.92
2022-08-16T09:33:32.613Z,52.03
2022-08-16T09:34:30.685Z,51.84
2022-08-16T09:35:30.690Z,52.23
2022-08-16T09:36:32.452Z,52.14
2022-08-16T09:37:30.163Z,52.50
2022-08-16T09:38:31.987Z,51.47
2022-08-16T09:39:41.045Z,50.37
2022-08-16T09:40:33.124Z,49.53
2022-08-16T09:41:30.602Z,49.38
2022-08-16T09:42:29.601Z,48.65
2022-08-16T09:43:59.315Z,47.55
2022-08-16T09:45:11.371Z,46.14
2022-08-16T09:45:30.583Z,45.33
2022-08-16T09:46:33.307Z,45.31
2022-08-16T09:47:57.378Z,45.19
2022-08-16T09:48:37.114Z,45.17
2022-08-16T09:49:37.019Z,44.05
2022-08-16T09:50:36.743Z,43.54
2022-08-16T09:51:36.634Z,42.18
2022-08-16T09:52:30.482Z,42.14
2022-08-16T09:53:29.489Z,41.96
2022-08-16T09:54:32.378Z,42.88
2022-08-16T09:55:31.209Z,44.41
2022-08-16T09:56:29.448Z,43.55
2022-08-16T09:57:34.349Z,44.74
2022-08-16T09:58:40.673Z,45.36
2022-08-16T09:59:30.937Z,45.16
2022-08-16T10:00:44.226Z,44.26
2022-08-16T10:01:30.385Z,44.65
2022-08-16T10:02:29.375Z,44.18
2022-08-16T10:03:29.373Z,45.16
2022-08-16T10:04:35.667Z,44.38
2022-08-16T10:05:30.358Z,45.28
2022-08-16T10:06:33.964Z,45.18
2022-08-16T10:07:44.575Z,45.45
2022-08-16T10:08:30.311Z,44.98
2022-08-16T10:09:45.062Z,45.30
2022-08-16T10:10:31.258Z,46.40
2022-08-16T10:11:29.288Z,45.34
2022-08-16T10:12:29.277Z,45.73
2022-08-16T10:13:29.396Z,47.42
2022-08-16T10:14:33.017Z,46.52
2022-08-16T10:15:30.257Z,47.89
2022-08-16T10:16:29.228Z,46.57
2022-08-16T10:17:29.277Z,45.36
2022-08-16T10:19:02.147Z,44.45
2022-08-16T10:19:32.082Z,44.34
2022-08-16T10:20:29.223Z,45.09
2022-08-16T10:21:29.226Z,43.19
2022-08-16T10:22:29.171Z,42.86
2022-08-16T10:23:29.164Z,42.84
2022-08-16T10:24:29.239Z,41.83
2022-08-16T10:27:00.533Z,41.51
2022-08-16T10:27:16.243Z,41.59
2022-08-16T10:27:47.043Z,41.57
2022-08-16T10:28:31.833Z,41.16
2022-08-16T10:30:00.262Z,39.70
2022-08-16T10:30:32.758Z,40.69
2022-08-16T10:31:44.512Z,40.52
2022-08-16T10:32:30.488Z,40.95
2022-08-16T10:33:29.702Z,41.38
2022-08-16T10:34:32.136Z,42.32
2022-08-16T10:35:32.871Z,42.93
2022-08-16T10:36:39.003Z,42.83
2022-08-16T10:37:35.768Z,43.24
2022-08-16T10:38:30.005Z,42.58
2022-08-16T10:39:40.417Z,43.26
2022-08-16T10:40:30.702Z,43.30
2022-08-16T10:41:28.971Z,43.91
2022-08-16T10:42:28.961Z,44.20
2022-08-16T10:43:31.075Z,44.81
2022-08-16T10:44:28.941Z,46.30
2022-08-16T10:45:28.943Z,46.72
2022-08-16T10:46:39.748Z,45.73
2022-08-16T10:47:33.174Z,46.33
2022-08-16T10:48:29.901Z,46.91
2022-08-16T10:49:28.971Z,45.62
2022-08-16T10:50:28.888Z,45.89
2022-08-16T10:51:34.379Z,45.59
2022-08-16T10:53:32.828Z,44.40
2022-08-16T10:54:30.386Z,45.75
2022-08-16T10:55:46.054Z,45.33
2022-08-16T10:56:52.806Z,45.53
2022-08-16T10:57:32.948Z,43.55
2022-08-16T10:58:34.500Z,43.55
2022-08-16T10:59:39.206Z,43.26
2022-08-16T11:00:29.792Z,43.24
2022-08-16T11:01:43.021Z,43.46
2022-08-16T11:03:04.737Z,44.14
2022-08-16T11:03:46.030Z,43.75
2022-08-16T11:05:58.992Z,42.69
2022-08-16T11:06:29.790Z,45.43
2022-08-16T11:07:45.523Z,45.33
2022-08-16T11:08:35.543Z,44.35
2022-08-16T11:09:29.683Z,44.92
2022-08-16T11:11:29.671Z,43.33
2022-08-16T11:12:28.668Z,42.65
2022-08-16T11:14:29.664Z,43.10
2022-08-16T11:15:28.621Z,44.03
2022-08-16T11:17:32.810Z,45.78
2022-08-16T11:18:48.437Z,46.27
2022-08-16T11:19:30.315Z,46.25
2022-08-16T11:20:49.177Z,45.56
2022-08-16T11:21:29.852Z,45.56
2022-08-16T11:22:47.126Z,45.17
2022-08-16T11:23:29.570Z,45.44
2022-08-16T11:24:41.558Z,45.52
2022-08-16T11:26:29.514Z,45.40
2022-08-16T11:27:35.668Z,44.71
2022-08-16T11:29:12.304Z,42.95
2022-08-16T11:29:29.495Z,43.54
2022-08-16T11:30:38.674Z,43.44
2022-08-16T11:31:29.466Z,44.27
2022-08-16T11:32:31.395Z,45.54
2022-08-16T11:34:50.299Z,45.34
2022-08-16T11:36:22.374Z,44.73
2022-08-16T11:36:29.429Z,43.95
2022-08-16T11:38:04.514Z,44.44
2022-08-16T11:38:55.363Z,43.95
2022-08-16T11:39:29.465Z,44.46
2022-08-16T11:40:32.833Z,44.27
2022-08-16T11:41:29.279Z,44.37
2022-08-16T11:42:29.746Z,43.77
2022-08-16T11:43:28.344Z,43.58
2022-08-16T11:44:40.699Z,44.83
2022-08-16T11:45:31.514Z,44.42
2022-08-16T11:46:43.053Z,43.63
2022-08-16T11:47:29.305Z,43.73
2022-08-16T11:48:28.277Z,43.71
2022-08-16T11:49:28.279Z,43.62
2022-08-16T11:50:28.264Z,43.30
2022-08-16T11:51:28.249Z,43.01
2022-08-16T11:52:28.235Z,43.48
2022-08-16T11:53:28.252Z,43.26
2022-08-16T11:54:33.225Z,43.04
2022-08-16T11:55:29.211Z,43.02
2022-08-16T11:56:37.588Z,41.54
2022-08-16T11:57:29.185Z,41.13
2022-08-16T11:58:28.333Z,40.35
2022-08-16T11:59:29.010Z,40.33
2022-08-16T12:00:42.662Z,40.42
2022-08-16T12:01:29.841Z,39.92
2022-08-16T12:02:30.939Z,39.92
2022-08-16T12:03:34.820Z,39.70
2022-08-16T12:04:29.217Z,39.70
2022-08-16T12:05:28.104Z,39.00
2022-08-16T12:06:30.946Z,38.71
2022-08-16T12:07:29.085Z,39.88
2022-08-16T12:08:28.070Z,38.60
2022-08-16T12:09:29.596Z,37.93
2022-08-16T12:10:28.119Z,38.73
2022-08-16T12:11:28.037Z,38.75
2022-08-16T12:12:28.428Z,39.84
2022-08-16T12:13:28.016Z,40.06
2022-08-16T12:14:28.016Z,39.86
2022-08-16T12:15:29.029Z,40.06
2022-08-16T12:16:31.071Z,40.17
2022-08-16T12:17:28.974Z,40.27
2022-08-16T12:18:27.997Z,40.09
2022-08-16T12:19:33.465Z,40.11
2022-08-16T12:20:29.759Z,40.64
2022-08-16T12:21:36.054Z,41.36
2022-08-16T12:22:28.941Z,42.29
2022-08-16T12:23:27.920Z,42.21
2022-08-16T12:24:27.928Z,43.41
2022-08-16T12:25:27.891Z,43.31
2022-08-16T12:26:27.883Z,43.52
2022-08-16T12:27:27.908Z,43.62
2022-08-16T12:28:54.078Z,44.78
2022-08-16T12:29:29.326Z,43.98
2022-08-16T12:30:31.210Z,42.70
2022-08-16T12:31:28.854Z,43.88
2022-08-16T12:32:38.619Z,42.97
2022-08-16T12:33:28.832Z,42.97
2022-08-16T12:34:28.827Z,43.46
2022-08-16T12:35:27.794Z,42.97
2022-08-16T12:36:30.029Z,43.84
2022-08-16T12:37:27.771Z,42.83
2022-08-16T12:38:41.480Z,43.84
2022-08-16T12:39:29.095Z,43.03
2022-08-16T12:40:29.198Z,43.34
2022-08-16T12:41:27.735Z,42.17
2022-08-16T12:42:35.397Z,42.36
2022-08-16T12:43:31.257Z,42.15
2022-08-16T12:44:31.161Z,42.25
2022-08-16T12:45:27.710Z,42.85
2022-08-16T12:46:27.672Z,43.03
2022-08-16T12:47:27.666Z,42.15
2022-08-16T12:48:33.941Z,42.44
2022-08-16T12:49:28.641Z,42.83
2022-08-16T12:50:33.333Z,42.42
2022-08-16T12:51:32.907Z,42.44
2022-08-16T12:52:33.466Z,41.74
2022-08-16T12:53:31.741Z,42.32
2022-08-16T12:54:27.599Z,41.76
2022-08-16T12:55:43.831Z,41.76
2022-08-16T12:56:27.565Z,42.35
2022-08-16T12:57:36.511Z,42.42
2022-08-16T12:58:48.857Z,42.30
2022-08-16T12:59:31.167Z,41.62
2022-08-16T13:00:33.684Z,40.92
2022-08-16T13:01:28.554Z,40.11
2022-08-16T13:02:33.287Z,39.94
2022-08-16T13:03:28.512Z,39.75